createdAt,value
2022-07-25T00:00:40.105Z,5.93
2022-07-25T00:03:10.761Z,6.68
2022-07-25T00:05:39.916Z,5.78
2022-07-25T00:08:08.393Z,5.45
2022-07-25T00:10:36.883Z,5.13
2022-07-25T00:13:06.952Z,5.40
2022-07-25T00:15:35.501Z,5.53
2022-07-25T00:18:03.935Z,4.40
2022-07-25T00:20:32.455Z,5.93
2022-07-25T00:23:00.856Z,4.63
2022-07-25T00:25:29.523Z,4.93
2022-07-25T00:27:57.914Z,6.50
2022-07-25T00:30:27.923Z,6.50
2022-07-25T00:32:56.374Z,5.40
2022-07-25T00:35:24.813Z,4.90
2022-07-25T00:37:53.246Z,4.78
2022-07-25T00:40:21.945Z,5.00
2022-07-25T00:42:50.421Z,6.05
2022-07-25T00:45:18.929Z,6.18
2022-07-25T00:47:49.147Z,4.38
2022-07-25T00:50:17.805Z,7.72
2022-07-25T00:52:46.616Z,5.28
2022-07-25T00:55:15.401Z,5.65
2022-07-25T00:57:44.015Z,6.95
2022-07-25T01:00:15.663Z,7.53
2022-07-25T01:02:44.601Z,5.47
2022-07-25T01:05:14.671Z,3.42
2022-07-25T01:07:43.511Z,4.90
2022-07-25T01:10:11.946Z,6.03
2022-07-25T01:12:51.031Z,4.78
2022-07-25T01:15:19.766Z,6.88
2022-07-25T01:17:48.856Z,7.22
2022-07-25T01:20:19.260Z,6.32
2022-07-25T01:22:48.553Z,6.90
2022-07-25T01:25:17.713Z,4.90
2022-07-25T01:27:51.402Z,6.13
2022-07-25T01:30:24.294Z,4.93
2022-07-25T01:32:53.128Z,6.70
2022-07-25T01:35:23.169Z,7.57
2022-07-25T01:37:51.794Z,4.95
2022-07-25T01:40:20.200Z,6.22
2022-07-25T01:42:48.815Z,4.60
2022-07-25T01:45:17.261Z,5.32
2022-07-25T01:47:45.951Z,5.68
2022-07-25T01:50:14.424Z,5.95
2022-07-25T01:52:45.025Z,5.65
2022-07-25T01:55:13.805Z,4.82
2022-07-25T01:57:42.667Z,4.43
2022-07-25T02:00:18.858Z,7.82
2022-07-25T02:02:47.864Z,5.70
2022-07-25T02:05:16.739Z,6.13
2022-07-25T02:07:46.743Z,6.15
2022-07-25T02:10:15.199Z,7.72
2022-07-25T02:12:43.564Z,6.90
2022-07-25T02:15:12.895Z,5.68
2022-07-25T02:17:41.476Z,6.10
2022-07-25T02:20:10.973Z,5.63
2022-07-25T02:22:38.851Z,6.47
2022-07-25T02:25:09.298Z,5.90
2022-07-25T02:27:37.060Z,5.45
2022-07-25T02:30:06.244Z,4.85
2022-07-25T02:32:34.058Z,5.82
2022-07-25T02:35:02.047Z,5.88
2022-07-25T02:37:29.883Z,5.53
2022-07-25T02:39:57.710Z,8.52
2022-07-25T02:42:26.999Z,5.88
2022-07-25T02:44:54.879Z,5.15
2022-07-25T02:47:22.649Z,6.50
2022-07-25T02:49:50.549Z,7.22
2022-07-25T02:52:18.411Z,5.55
2022-07-25T02:54:46.359Z,5.22
2022-07-25T02:57:14.139Z,7.32
2022-07-25T02:59:43.459Z,6.72
2022-07-25T03:02:11.249Z,7.70
2022-07-25T03:04:39.191Z,4.68
2022-07-25T03:07:07.660Z,5.53
2022-07-25T03:09:36.442Z,7.78
2022-07-25T03:12:04.928Z,7.07
2022-07-25T03:14:32.851Z,7.65
2022-07-25T03:17:02.094Z,5.20
2022-07-25T03:19:29.937Z,7.07
2022-07-25T03:21:57.665Z,5.28
2022-07-25T03:24:27.885Z,6.30
2022-07-25T03:26:56.507Z,4.63
2022-07-25T03:29:24.251Z,8.32
2022-07-25T03:31:52.062Z,5.28
2022-07-25T03:34:21.537Z,5.60
2022-07-25T03:36:49.468Z,5.60
2022-07-25T03:39:17.445Z,5.97
2022-07-25T03:41:45.538Z,6.10
2022-07-25T03:44:13.436Z,5.78
2022-07-25T03:46:41.140Z,6.32
2022-07-25T03:49:09.058Z,6.18
2022-07-25T03:51:38.219Z,6.00
2022-07-25T03:54:07.063Z,6.60
2022-07-25T03:56:43.631Z,5.95
2022-07-25T03:59:13.482Z,5.63
2022-07-25T04:01:42.203Z,7.78
2022-07-25T04:04:10.611Z,4.68
2022-07-25T04:06:40.824Z,5.35
2022-07-25T04:09:10.434Z,5.97
2022-07-25T04:11:38.576Z,6.13
2022-07-25T04:14:07.211Z,5.53
2022-07-25T04:16:35.192Z,6.47
2022-07-25T04:19:06.306Z,7.22
2022-07-25T04:21:34.575Z,7.05
2022-07-25T04:24:04.296Z,7.13
2022-07-25T04:26:32.417Z,6.05
2022-07-25T04:29:04.279Z,9.15
2022-07-25T04:31:32.882Z,4.55
2022-07-25T04:34:00.560Z,6.90
2022-07-25T04:36:28.478Z,5.97
2022-07-25T04:38:56.249Z,5.68
2022-07-25T04:41:25.529Z,4.90
2022-07-25T04:43:53.507Z,6.00
2022-07-25T04:46:22.005Z,7.07
2022-07-25T04:48:50.822Z,4.78
2022-07-25T04:51:19.168Z,5.50
2022-07-25T04:53:47.249Z,6.95
2022-07-25T04:56:15.048Z,5.70
2022-07-25T04:58:44.622Z,4.80
2022-07-25T05:01:12.410Z,8.38
2022-07-25T05:03:40.182Z,7.05
2022-07-25T05:06:08.487Z,6.50
2022-07-25T05:08:36.307Z,7.28
2022-07-25T05:11:04.269Z,5.85
2022-07-25T05:13:32.053Z,7.45
2022-07-25T05:16:01.920Z,5.38
2022-07-25T05:18:29.788Z,7.85
2022-07-25T05:20:57.498Z,8.95
2022-07-25T05:23:25.246Z,8.32
2022-07-25T05:25:53.037Z,6.85
2022-07-25T05:28:20.712Z,6.93
2022-07-25T05:30:48.401Z,5.50
2022-07-25T05:33:17.701Z,6.20
2022-07-25T05:35:45.367Z,8.13
2022-07-25T05:38:13.173Z,5.45
2022-07-25T05:40:40.822Z,9.73
2022-07-25T05:43:09.258Z,8.90
2022-07-25T05:45:36.936Z,5.65
2022-07-25T05:48:04.989Z,8.73
2022-07-25T05:50:34.133Z,7.32
2022-07-25T05:53:02.075Z,7.80
2022-07-25T05:55:29.832Z,7.03
2022-07-25T05:57:58.055Z,8.27
2022-07-25T06:00:26.150Z,6.85
2022-07-25T06:02:54.660Z,11.85
2022-07-25T06:05:22.579Z,8.75
2022-07-25T06:07:51.711Z,8.00
2022-07-25T06:10:19.701Z,7.18
2022-07-25T06:12:47.570Z,6.15
2022-07-25T06:15:22.810Z,8.38
2022-07-25T06:17:54.907Z,8.15
2022-07-25T06:20:24.158Z,10.18
2022-07-25T06:22:53.986Z,8.32
2022-07-25T06:25:22.264Z,10.25
2022-07-25T06:27:50.336Z,7.72
2022-07-25T06:30:20.560Z,10.05
2022-07-25T06:32:49.741Z,6.20
2022-07-25T06:35:18.222Z,9.40
2022-07-25T06:37:46.807Z,8.98
2022-07-25T06:40:16.616Z,8.38
2022-07-25T06:42:46.068Z,7.40
2022-07-25T06:45:15.507Z,10.63
2022-07-25T06:47:45.115Z,10.82
2022-07-25T06:50:16.066Z,10.23
2022-07-25T06:52:44.292Z,9.05
2022-07-25T06:55:13.803Z,10.98
2022-07-25T06:57:43.747Z,8.98
2022-07-25T07:00:13.994Z,8.00
2022-07-25T07:02:52.520Z,7.47
2022-07-25T07:05:22.289Z,9.60
2022-07-25T07:07:50.691Z,10.05
2022-07-25T07:10:19.402Z,8.52
2022-07-25T07:12:49.492Z,10.85
2022-07-25T07:15:18.572Z,8.32
2022-07-25T07:17:46.661Z,10.00
2022-07-25T07:20:14.771Z,7.38
2022-07-25T07:22:46.873Z,8.60
2022-07-25T07:25:16.839Z,7.97
2022-07-25T07:27:45.681Z,8.20
2022-07-25T07:30:16.864Z,7.72
2022-07-25T07:32:48.391Z,6.95
2022-07-25T07:35:17.001Z,10.38
2022-07-25T07:37:45.722Z,9.05
2022-07-25T07:40:17.734Z,8.38
2022-07-25T07:42:48.567Z,7.35
2022-07-25T07:45:20.442Z,11.00
2022-07-25T07:47:49.435Z,13.30
2022-07-25T07:50:19.003Z,8.20
2022-07-25T07:52:47.343Z,8.57
2022-07-25T07:55:34.019Z,7.13
2022-07-25T07:58:02.554Z,7.65
2022-07-25T08:00:36.550Z,9.35
2022-07-25T08:03:07.032Z,8.13
2022-07-25T08:05:38.993Z,7.03
2022-07-25T08:08:09.125Z,8.85
2022-07-25T08:10:39.861Z,9.80
2022-07-25T08:13:15.541Z,6.90
2022-07-25T08:15:47.042Z,7.45
2022-07-25T08:18:17.014Z,9.18
2022-07-25T08:20:47.091Z,7.63
2022-07-25T08:23:15.689Z,8.65
2022-07-25T08:25:44.569Z,10.18
2022-07-25T08:28:13.009Z,10.15
2022-07-25T08:30:42.478Z,9.77
2022-07-25T08:33:13.939Z,10.95
2022-07-25T08:35:46.128Z,8.32
2022-07-25T08:38:14.478Z,11.13
2022-07-25T08:40:42.561Z,8.80
2022-07-25T08:43:13.392Z,8.82
2022-07-25T08:45:44.619Z,11.25
2022-07-25T08:48:14.660Z,11.20
2022-07-25T08:50:44.362Z,10.80
2022-07-25T08:53:32.672Z,10.70
2022-07-25T08:56:05.322Z,13.85
2022-07-25T08:58:38.387Z,10.57
2022-07-25T09:01:07.520Z,11.35
2022-07-25T09:03:37.379Z,9.63
2022-07-25T09:06:16.831Z,8.00
2022-07-25T09:08:53.009Z,8.82
2022-07-25T09:14:01.119Z,9.43
2022-07-25T09:16:34.298Z,6.97
2022-07-25T09:19:14.850Z,10.48
2022-07-25T09:21:44.720Z,8.77
2022-07-25T09:24:16.293Z,9.30
2022-07-25T09:26:45.981Z,10.18
2022-07-25T09:29:22.129Z,9.43
2022-07-25T09:34:31.670Z,12.45
2022-07-25T09:37:00.828Z,9.23
2022-07-25T09:39:40.797Z,10.90
2022-07-25T09:42:20.821Z,7.65
2022-07-25T09:45:03.833Z,9.90
2022-07-25T09:47:33.170Z,10.05
2022-07-25T09:50:03.079Z,11.35
2022-07-25T09:52:31.880Z,8.13
2022-07-25T09:55:03.206Z,10.55
2022-07-25T09:57:31.658Z,9.95
2022-07-25T10:00:01.105Z,7.75
2022-07-25T10:02:40.919Z,9.77
2022-07-25T10:05:15.770Z,11.38
2022-07-25T10:07:47.517Z,9.07
2022-07-25T10:10:30.946Z,10.18
2022-07-25T10:13:09.986Z,8.48
2022-07-25T10:15:47.492Z,11.32
2022-07-25T10:18:17.342Z,9.23
2022-07-25T10:20:48.495Z,9.68
2022-07-25T10:23:22.083Z,9.73
2022-07-25T10:26:05.202Z,9.93
2022-07-25T10:28:42.493Z,8.63
2022-07-25T10:31:22.619Z,10.63
2022-07-25T10:33:53.499Z,9.82
2022-07-25T10:36:25.443Z,12.93
2022-07-25T10:38:58.476Z,8.50
2022-07-25T10:41:27.493Z,10.85
2022-07-25T10:44:01.565Z,9.63
2022-07-25T10:46:31.344Z,11.55
2022-07-25T10:49:01.879Z,12.40
2022-07-25T10:51:39.480Z,9.35
2022-07-25T10:54:17.541Z,10.10
2022-07-25T10:56:54.427Z,9.07
2022-07-25T10:59:34.324Z,12.13
2022-07-25T11:02:04.658Z,8.98
2022-07-25T11:04:38.151Z,7.57
2022-07-25T11:07:14.621Z,10.60
2022-07-25T11:09:57.227Z,10.15
2022-07-25T11:12:26.973Z,10.10
2022-07-25T11:15:01.762Z,9.75
2022-07-25T11:17:50.327Z,9.48
2022-07-25T11:20:23.782Z,8.80
2022-07-25T11:22:57.192Z,9.00
2022-07-25T11:25:26.044Z,12.52
2022-07-25T11:28:01.222Z,7.97
2022-07-25T11:30:31.416Z,7.47
2022-07-25T11:33:04.045Z,11.75
2022-07-25T11:35:34.013Z,10.57
2022-07-25T11:38:06.444Z,7.95
2022-07-25T11:40:43.997Z,7.15
2022-07-25T11:43:21.556Z,8.25
2022-07-25T11:45:58.586Z,8.05
2022-07-25T11:48:35.851Z,8.50
2022-07-25T11:51:18.707Z,7.10
2022-07-25T11:53:51.121Z,7.95
2022-07-25T11:56:41.321Z,8.40
2022-07-25T11:59:10.679Z,7.82
2022-07-25T12:01:41.684Z,9.85
2022-07-25T12:04:13.103Z,9.15
2022-07-25T12:06:42.351Z,19.40
2022-07-25T12:09:19.178Z,19.10
2022-07-25T12:11:48.868Z,13.07
2022-07-25T12:14:17.710Z,8.88
2022-07-25T12:16:46.089Z,12.77
2022-07-25T12:19:21.395Z,6.93
2022-07-25T12:21:49.569Z,7.35
2022-07-25T12:24:19.131Z,8.88
2022-07-25T12:26:47.364Z,11.27
2022-07-25T12:29:15.537Z,8.38
2022-07-25T12:31:44.079Z,11.48
2022-07-25T12:34:12.400Z,9.88
2022-07-25T12:36:45.273Z,9.30
2022-07-25T12:39:14.107Z,10.23
2022-07-25T12:41:43.937Z,11.77
2022-07-25T12:44:12.438Z,8.27
2022-07-25T12:46:47.253Z,9.30
2022-07-25T12:49:17.968Z,13.05
2022-07-25T12:51:46.370Z,13.48
2022-07-25T12:54:21.740Z,11.10
2022-07-25T12:56:52.604Z,8.05
2022-07-25T12:59:21.099Z,11.15
2022-07-25T13:01:49.316Z,8.38
2022-07-25T13:04:17.700Z,8.52
2022-07-25T13:06:46.812Z,8.02
2022-07-25T13:09:15.617Z,10.23
2022-07-25T13:11:44.068Z,10.52
2022-07-25T13:14:14.214Z,13.70
2022-07-25T13:16:42.760Z,9.02
2022-07-25T13:19:11.356Z,6.72
2022-07-25T13:21:40.184Z,10.95
2022-07-25T13:24:08.915Z,7.20
2022-07-25T13:26:38.050Z,10.13
2022-07-25T13:29:12.021Z,7.63
2022-07-25T13:31:43.366Z,7.90
2022-07-25T13:34:12.310Z,11.10
2022-07-25T13:36:41.039Z,8.18
2022-07-25T13:39:09.675Z,9.05
2022-07-25T13:41:38.352Z,8.25
2022-07-25T13:44:07.218Z,9.65
2022-07-25T13:46:50.255Z,10.00
2022-07-25T13:49:19.102Z,9.20
2022-07-25T13:51:47.955Z,8.93
2022-07-25T13:54:18.975Z,10.15
2022-07-25T13:56:55.616Z,7.38
2022-07-25T14:02:20.182Z,6.38
2022-07-25T14:04:48.717Z,6.20
2022-07-25T14:07:17.410Z,7.57
2022-07-25T14:09:46.905Z,7.10
2022-07-25T14:12:17.775Z,7.35
2022-07-25T14:14:47.304Z,6.60
2022-07-25T14:17:16.427Z,6.93
2022-07-25T14:19:47.970Z,10.05
2022-07-25T14:22:16.086Z,7.57
2022-07-25T14:24:44.216Z,7.60
2022-07-25T14:27:13.106Z,9.27
2022-07-25T14:29:41.201Z,6.85
2022-07-25T14:32:09.158Z,7.13
2022-07-25T14:34:38.158Z,7.70
2022-07-25T14:37:09.975Z,8.07
2022-07-25T14:39:38.005Z,7.10
2022-07-25T14:42:05.913Z,6.72
2022-07-25T14:44:34.870Z,8.32
2022-07-25T14:47:11.857Z,12.52
2022-07-25T14:49:41.203Z,6.87
2022-07-25T14:52:12.096Z,6.68
2022-07-25T14:54:40.334Z,12.85
2022-07-25T14:57:09.000Z,8.57
2022-07-25T14:59:37.112Z,10.70
2022-07-25T15:02:05.041Z,9.52
2022-07-25T15:04:33.346Z,7.53
2022-07-25T15:07:02.263Z,7.55
2022-07-25T15:09:32.033Z,7.45
2022-07-25T15:12:00.162Z,8.07
2022-07-25T15:14:28.327Z,8.80
2022-07-25T15:16:56.429Z,8.18
2022-07-25T15:19:24.572Z,7.05
2022-07-25T15:21:54.534Z,8.75
2022-07-25T15:24:27.101Z,8.02
2022-07-25T15:26:58.656Z,8.00
2022-07-25T15:29:28.008Z,7.13
2022-07-25T15:31:55.961Z,9.00
2022-07-25T15:34:23.805Z,6.45
2022-07-25T15:36:52.379Z,7.50
2022-07-25T15:39:20.163Z,7.15
2022-07-25T15:41:48.077Z,10.77
2022-07-25T15:44:17.866Z,7.53
2022-07-25T15:46:46.471Z,6.47
2022-07-25T15:49:15.825Z,6.30
2022-07-25T15:51:43.900Z,8.55
2022-07-25T15:54:11.786Z,7.90
2022-07-25T15:56:40.542Z,6.25
2022-07-25T15:59:08.749Z,8.77
2022-07-25T16:01:38.724Z,8.05
2022-07-25T16:04:06.659Z,8.90
2022-07-25T16:06:34.747Z,5.47
2022-07-25T16:09:03.251Z,4.90
2022-07-25T16:11:31.371Z,8.15
2022-07-25T16:13:59.333Z,6.22
2022-07-25T16:16:27.524Z,8.57
2022-07-25T16:18:58.074Z,8.23
2022-07-25T16:21:25.898Z,6.60
2022-07-25T16:23:53.718Z,7.15
2022-07-25T16:26:21.561Z,6.72
2022-07-25T16:28:57.822Z,9.15
2022-07-25T16:31:27.035Z,9.05
2022-07-25T16:33:56.530Z,8.80
2022-07-25T16:36:25.602Z,7.65
2022-07-25T16:38:53.765Z,7.57
2022-07-25T16:41:21.829Z,6.25
2022-07-25T16:43:49.696Z,5.30
2022-07-25T16:46:17.745Z,6.97
2022-07-25T16:48:45.542Z,5.75
2022-07-25T16:51:15.031Z,8.38
2022-07-25T16:53:42.763Z,6.05
2022-07-25T16:56:11.066Z,8.18
2022-07-25T16:58:38.841Z,8.07
2022-07-25T17:01:07.100Z,6.15
2022-07-25T17:03:35.134Z,8.77
2022-07-25T17:06:02.951Z,6.25
2022-07-25T17:08:33.018Z,5.15
2022-07-25T17:11:16.169Z,5.22
2022-07-25T17:13:44.605Z,6.88
2022-07-25T17:16:13.243Z,5.43
2022-07-25T17:18:41.470Z,7.00
2022-07-25T17:21:10.833Z,5.25
2022-07-25T17:23:40.160Z,5.47
2022-07-25T17:26:08.131Z,6.30
2022-07-25T17:28:36.601Z,6.60
2022-07-25T17:31:04.543Z,5.53
2022-07-25T17:33:32.537Z,6.45
2022-07-25T17:36:00.722Z,5.90
2022-07-25T17:38:34.572Z,4.03
2022-07-25T17:41:04.359Z,6.22
2022-07-25T17:43:32.409Z,6.93
2022-07-25T17:46:00.455Z,5.00
2022-07-25T17:48:28.633Z,6.43
2022-07-25T17:50:56.702Z,5.82
2022-07-25T17:53:24.422Z,5.15
2022-07-25T17:55:57.383Z,4.30
2022-07-25T17:58:26.771Z,9.88
2022-07-25T18:00:58.218Z,4.80
2022-07-25T18:03:29.225Z,5.88
2022-07-25T18:05:57.244Z,4.00
2022-07-25T18:08:25.214Z,5.20
2022-07-25T18:10:53.437Z,6.82
2022-07-25T18:13:22.295Z,7.57
2022-07-25T18:15:51.905Z,6.53
2022-07-25T18:18:20.925Z,5.80
2022-07-25T18:20:49.205Z,6.95
2022-07-25T18:23:17.146Z,4.95
2022-07-25T18:25:45.397Z,5.50
2022-07-25T18:28:13.535Z,7.07
2022-07-25T18:30:41.689Z,6.97
2022-07-25T18:33:12.172Z,6.80
2022-07-25T18:35:41.607Z,4.72
2022-07-25T18:38:11.779Z,6.72
2022-07-25T18:40:39.856Z,5.40
2022-07-25T18:43:09.046Z,5.72
2022-07-25T18:45:38.427Z,6.05
2022-07-25T18:48:08.199Z,10.73
2022-07-25T18:50:37.995Z,5.50
2022-07-25T18:53:07.902Z,3.92
2022-07-25T18:55:36.022Z,4.65
2022-07-25T18:58:04.668Z,5.20
2022-07-25T19:00:32.967Z,4.35
2022-07-25T19:03:01.033Z,5.35
2022-07-25T19:05:29.475Z,6.00
2022-07-25T19:08:01.230Z,6.38
2022-07-25T19:10:29.829Z,8.88
2022-07-25T19:12:58.313Z,5.70
2022-07-25T19:15:28.735Z,5.10
2022-07-25T19:18:00.021Z,7.25
2022-07-25T19:20:30.302Z,5.72
2022-07-25T19:23:00.315Z,4.32
2022-07-25T19:25:28.749Z,6.78
2022-07-25T19:27:56.974Z,3.53
2022-07-25T19:30:25.835Z,3.80
2022-07-25T19:32:54.066Z,8.07
2022-07-25T19:35:26.297Z,3.72
2022-07-25T19:37:54.751Z,5.85
2022-07-25T19:40:24.363Z,5.22
2022-07-25T19:42:53.030Z,7.05
2022-07-25T19:45:21.257Z,3.95
2022-07-25T19:47:49.858Z,4.68
2022-07-25T19:50:18.027Z,6.32
2022-07-25T19:52:47.058Z,6.65
2022-07-25T19:55:15.669Z,6.57
2022-07-25T19:57:45.373Z,4.82
2022-07-25T20:00:14.418Z,5.55
2022-07-25T20:02:43.501Z,4.95
2022-07-25T20:05:11.917Z,6.25
2022-07-25T20:07:40.634Z,5.50
2022-07-25T20:10:10.452Z,5.50
2022-07-25T20:12:39.304Z,5.55
2022-07-25T20:15:09.826Z,5.05
2022-07-25T20:17:37.896Z,4.90
2022-07-25T20:20:08.645Z,4.20
2022-07-25T20:22:40.109Z,6.47
2022-07-25T20:25:10.473Z,3.85
2022-07-25T20:27:39.719Z,6.05
2022-07-25T20:30:11.772Z,6.60
2022-07-25T20:32:40.018Z,6.22
2022-07-25T20:35:08.701Z,3.65
2022-07-25T20:37:37.083Z,4.80
2022-07-25T20:40:06.354Z,4.25
2022-07-25T20:42:37.549Z,5.00
2022-07-25T20:45:06.988Z,6.10
2022-07-25T20:47:36.746Z,5.63
2022-07-25T20:50:05.530Z,5.85
2022-07-25T20:52:35.235Z,4.25
2022-07-25T20:55:08.265Z,4.65
2022-07-25T20:57:36.468Z,3.50
2022-07-25T21:00:07.125Z,7.80
2022-07-25T21:02:36.647Z,7.93
2022-07-25T21:05:05.225Z,5.60
2022-07-25T21:07:33.360Z,3.85
2022-07-25T21:10:01.239Z,3.67
2022-07-25T21:12:32.558Z,4.38
2022-07-25T21:15:01.574Z,5.20
2022-07-25T21:17:29.548Z,4.97
2022-07-25T21:19:59.274Z,3.95
2022-07-25T21:22:27.480Z,4.70
2022-07-25T21:24:55.722Z,5.85
2022-07-25T21:27:24.121Z,3.53
2022-07-25T21:29:52.438Z,5.50
2022-07-25T21:32:48.070Z,5.03
2022-07-25T21:35:18.547Z,4.28
2022-07-25T21:37:46.705Z,4.68
2022-07-25T21:40:14.873Z,5.47
2022-07-25T21:42:43.140Z,4.97
2022-07-25T21:45:12.311Z,5.82
2022-07-25T21:47:40.578Z,3.45
2022-07-25T21:50:28.710Z,4.55
2022-07-25T21:52:58.610Z,4.65
2022-07-25T21:55:26.943Z,5.30
2022-07-25T21:57:55.201Z,4.72
2022-07-25T22:00:23.909Z,6.15
2022-07-25T22:02:51.833Z,4.03
2022-07-25T22:05:20.324Z,4.57
2022-07-25T22:07:48.811Z,4.18
2022-07-25T22:10:20.190Z,3.70
2022-07-25T22:12:48.429Z,3.70
2022-07-25T22:15:16.491Z,5.00
2022-07-25T22:17:48.361Z,3.60
2022-07-25T22:20:19.164Z,3.60
2022-07-25T22:22:47.651Z,6.32
2022-07-25T22:25:16.100Z,4.05
2022-07-25T22:27:45.738Z,3.67
2022-07-25T22:30:19.273Z,3.60
2022-07-25T22:32:48.989Z,3.70
2022-07-25T22:35:17.683Z,4.65
2022-07-25T22:37:46.371Z,4.45
2022-07-25T22:40:15.076Z,4.68
2022-07-25T22:42:44.608Z,6.35
2022-07-25T22:45:12.640Z,6.28
2022-07-25T22:47:40.908Z,5.28
2022-07-25T22:50:10.167Z,5.15
2022-07-25T22:52:38.211Z,3.90
2022-07-25T22:55:06.837Z,4.63
2022-07-25T22:57:37.248Z,4.47
2022-07-25T23:00:11.279Z,4.65
2022-07-25T23:02:40.671Z,4.43
2022-07-25T23:05:09.488Z,5.72
2022-07-25T23:07:37.810Z,6.43
2022-07-25T23:10:07.279Z,5.30
2022-07-25T23:12:35.518Z,5.28
2022-07-25T23:15:04.131Z,4.35
2022-07-25T23:17:33.658Z,5.03
2022-07-25T23:20:01.818Z,6.32
2022-07-25T23:22:30.380Z,6.80
2022-07-25T23:24:58.909Z,4.82
2022-07-25T23:27:27.403Z,6.82
2022-07-25T23:29:55.359Z,5.15
2022-07-25T23:32:23.398Z,5.63
2022-07-25T23:34:52.934Z,3.95
2022-07-25T23:37:21.079Z,4.13
2022-07-25T23:39:49.029Z,6.00
2022-07-25T23:42:17.118Z,3.67
2022-07-25T23:44:46.103Z,4.70
2022-07-25T23:47:15.114Z,4.47
2022-07-25T23:49:43.179Z,3.90
2022-07-25T23:52:12.639Z,4.50
2022-07-25T23:54:41.237Z,3.60
2022-07-25T23:57:09.521Z,4.20
2022-07-25T23:59:37.859Z,5.13
